CMA CGM Lamartine — 2DMF2 — position and weather

sailwx.info

Track history (hours):
 
Tides and Currents Weather Stations Pressure Air Temp Water Temp Dewpoint Dewpoint Depression Visibility Wind Speed Wind Dir Waves Ship Positions

CMA CGM Lamartine

Last reported at 2018-Apr-12 11:37 UTC. Time now 2018-Apr-19 11:27 UTC.
Position N 27°11' W 079°51'.

Length 299 m; draft 11 m.

Type: Ship (hazmat cat A). MMSI: 235080187.

Date/timePositionNaut miles runAvg speedWind from/ knotsBaromVisibWave heightAir tempDewpointWater temp
2018-Apr-12 11:37N 27°11' W 079°51'214.8
2018-Apr-12 11:30N 27°09' W 079°51'714.7
2018-Apr-12 11:00N 27°02' W 079°51'714.6
2018-Apr-12 10:30N 26°55' W 079°51'714.7
2018-Apr-12 10:00N 26°47' W 079°51'914.9
2018-Apr-12 09:24N 26°38' W 079°51'615.3
2018-Apr-12 09:00N 26°32' W 079°51'815.4
2018-Apr-12 08:30N 26°24' W 079°51'815.1
2018-Apr-12 08:00N 26°17' W 079°51'715.0
2018-Apr-12 07:30N 26°09' W 079°52'714.6
2018-Apr-12 07:00N 26°03' W 079°55'714.1
2018-Apr-12 06:30N 25°57' W 079°59'713.9
2018-Apr-12 06:00N 25°50' W 080°02'510.5
2018-Apr-12 05:30N 25°46' W 080°05'4 7.2
2018-Apr-12 05:00N 25°46' W 080°09'1 0.9
2018-Apr-12 04:25N 25°46' W 080°09'0 0.0
2018-Apr-12 03:58N 25°46' W 080°09'0 0.0
2018-Apr-12 03:28N 25°46' W 080°09'0 0.0
2018-Apr-12 02:58N 25°46' W 080°09'0 0.0
2018-Apr-12 02:28N 25°46' W 080°09'0 0.0
2018-Apr-12 01:58N 25°46' W 080°09'0 0.0
2018-Apr-12 01:25N 25°46' W 080°09'0 0.0
2018-Apr-12 00:58N 25°46' W 080°09'0 0.0
2018-Apr-12 00:28N 25°46' W 080°09'0 0.0
2018-Apr-11 23:58N 25°46' W 080°09'0 0.0
2018-Apr-11 23:19N 25°46' W 080°09'0 0.0
2018-Apr-11 22:49N 25°46' W 080°09'0 0.0
2018-Apr-11 22:25N 25°46' W 080°09'0 0.0
2018-Apr-11 21:55N 25°46' W 080°09'0 0.0
2018-Apr-11 21:22N 25°46' W 080°09'0 0.0
2018-Apr-11 20:52N 25°46' W 080°09'0 0.0
2018-Apr-11 20:22N 25°46' W 080°09'0 0.0
2018-Apr-11 19:55N 25°46' W 080°09'0 0.0
2018-Apr-11 19:22N 25°46' W 080°09'0 0.0
2018-Apr-11 18:55N 25°46' W 080°09'0 0.0
2018-Apr-11 18:25N 25°46' W 080°09'0 0.0
2018-Apr-11 17:55N 25°46' W 080°09'0 0.0
2018-Apr-11 17:25N 25°46' W 080°09'0 0.0
2018-Apr-11 16:55N 25°46' W 080°09'0 0.0
2018-Apr-11 16:28N 25°46' W 080°09'0 0.0
2018-Apr-11 15:58N 25°46' W 080°09'0 0.0
2018-Apr-11 15:28N 25°46' W 080°09'0 0.0
2018-Apr-11 14:55N 25°46' W 080°09'0 0.0
2018-Apr-11 14:28N 25°46' W 080°09'0 0.0
2018-Apr-11 13:58N 25°46' W 080°09'0 0.0
2018-Apr-11 13:28N 25°46' W 080°09'0 0.0
2018-Apr-11 12:58N 25°46' W 080°09'0 0.0
2018-Apr-11 12:30N 25°46' W 080°09'0 0.0
2018-Apr-11 12:00N 25°46' W 080°09'0 0.0
2018-Apr-11 11:27N 25°46' W 080°09'0 0.0
2018-Apr-11 11:00N 25°46' W 080°09'0 0.0
2018-Apr-11 10:30N 25°46' W 080°09'0 0.0
2018-Apr-11 10:00N 25°46' W 080°09'0 0.0
2018-Apr-11 09:30N 25°46' W 080°09'0 0.0
2018-Apr-11 09:00N 25°46' W 080°09'0 0.0
2018-Apr-11 08:30N 25°46' W 080°09'0 0.0
2018-Apr-11 08:00N 25°46' W 080°09'0 0.0
2018-Apr-11 07:30N 25°46' W 080°09'0 0.0
2018-Apr-11 07:00N 25°46' W 080°09'0 0.0
2018-Apr-11 06:30N 25°46' W 080°09'0 0.0
2018-Apr-11 05:59N 25°46' W 080°09'1 1.2
2018-Apr-11 05:30N 25°46' W 080°08'3 6.5
2018-Apr-11 05:00N 25°46' W 080°05'4 7.5
2018-Apr-11 04:30N 25°49' W 080°02'2 5.0
2018-Apr-11 04:00N 25°47' W 080°01'3 6.4
2018-Apr-11 03:30N 25°44' W 079°59'5 9.6
2018-Apr-11 03:01N 25°39' W 079°59'815.9
2018-Apr-11 02:30N 25°31' W 079°60'815.8
2018-Apr-11 01:59N 25°23' W 080°01'715.3
2018-Apr-11 01:30N 25°16' W 080°04'  
2018-Apr-05 12:19N 28°49' W 093°54'618.6
2018-Apr-05 12:00N 28°51' W 094°00'1018.5
2018-Apr-05 11:29N 28°53' W 094°11'918.3
2018-Apr-05 11:00N 28°55' W 094°21'816.0
2018-Apr-05 10:30N 29°02' W 094°26'917.7
2018-Apr-05 10:00N 29°10' W 094°29'916.7
2018-Apr-05 09:28N 29°17' W 094°36'614.1
2018-Apr-05 09:00N 29°21' W 094°42'612.7
2018-Apr-05 08:30N 29°23' W 094°49'612.9
2018-Apr-05 08:00N 29°29' W 094°52'612.4
2018-Apr-05 07:30N 29°34' W 094°55'4 8.0
2018-Apr-05 07:00N 29°37' W 094°59'2 3.3
2018-Apr-05 06:30N 29°37' W 095°01'0 0.0
2018-Apr-05 06:00N 29°37' W 095°01'0 0.0
2018-Apr-05 05:30N 29°37' W 095°01'0 0.0
2018-Apr-05 05:00N 29°37' W 095°01'0 0.0
2018-Apr-05 04:30N 29°37' W 095°01'0 0.0
2018-Apr-05 03:57N 29°37' W 095°01'0 0.0
2018-Apr-05 03:30N 29°37' W 095°01'0 0.0
2018-Apr-05 03:00N 29°37' W 095°01'0 0.0
2018-Apr-05 02:30N 29°37' W 095°01'0 0.0
2018-Apr-05 02:00N 29°37' W 095°01'0 0.0
2018-Apr-05 01:30N 29°37' W 095°01'0 0.0
2018-Apr-05 01:00N 29°37' W 095°01'0 0.0
2018-Apr-05 00:27N 29°37' W 095°01'0 0.0
2018-Apr-05 00:00N 29°37' W 095°01'0 0.0
2018-Apr-04 23:30N 29°37' W 095°01'0 0.0
2018-Apr-04 23:00N 29°37' W 095°01'0 0.0
2018-Apr-04 22:30N 29°37' W 095°01'0 0.0
2018-Apr-04 22:00N 29°37' W 095°01'0 0.0
2018-Apr-04 21:30N 29°37' W 095°01'0 0.0
2018-Apr-04 21:00N 29°37' W 095°01'0 0.0
2018-Apr-04 20:30N 29°37' W 095°01'0 0.0
2018-Apr-04 20:00N 29°37' W 095°01'0 0.0
2018-Apr-04 19:30N 29°37' W 095°01'0 0.0
2018-Apr-04 19:00N 29°37' W 095°01'0 0.0
2018-Apr-04 18:30N 29°37' W 095°01'0 0.0
2018-Apr-04 18:00N 29°37' W 095°01'0 0.0
2018-Apr-04 17:30N 29°37' W 095°01'0 0.0
2018-Apr-04 17:00N 29°37' W 095°01'0 0.0
2018-Apr-04 16:30N 29°37' W 095°01'0 0.0
2018-Apr-04 16:00N 29°37' W 095°01'0 0.0
2018-Apr-04 15:30N 29°37' W 095°01'0 0.0
2018-Apr-04 15:00N 29°37' W 095°01'0 0.0
2018-Apr-04 14:30N 29°37' W 095°01'0 0.0
2018-Apr-04 14:00N 29°37' W 095°01'0 0.0
2018-Apr-04 13:30N 29°37' W 095°01'0 0.0
2018-Apr-04 13:00N 29°37' W 095°01'0 0.0
2018-Apr-04 12:30N 29°37' W 095°01'0 0.0
2018-Apr-04 12:00N 29°37' W 095°01'0 0.0
2018-Apr-04 11:30N 29°37' W 095°01'0 0.0
2018-Apr-04 11:00N 29°37' W 095°01'0 0.0
2018-Apr-04 10:30N 29°37' W 095°01'0 0.0
2018-Apr-04 10:00N 29°37' W 095°01'0 0.0
2018-Apr-04 09:30N 29°37' W 095°01'0 0.0
2018-Apr-04 09:00N 29°37' W 095°01'0 0.0
2018-Apr-04 08:30N 29°37' W 095°01'0 0.0
2018-Apr-04 08:00N 29°37' W 095°01'0 0.0
2018-Apr-04 07:30N 29°37' W 095°01'0 0.0
2018-Apr-04 07:00N 29°37' W 095°01'0 0.0
2018-Apr-04 06:30N 29°37' W 095°01'0 0.0
2018-Apr-04 06:00N 29°37' W 095°01'0 0.0
2018-Apr-04 05:30N 29°37' W 095°01'0 0.0
2018-Apr-04 05:00N 29°37' W 095°01'0 0.0
2018-Apr-04 04:30N 29°37' W 095°01'0 0.0
2018-Apr-04 04:00N 29°37' W 095°01'0 0.0
2018-Apr-04 03:30N 29°37' W 095°01'0 0.0
2018-Apr-04 03:00N 29°37' W 095°01'0 0.0
2018-Apr-04 02:30N 29°37' W 095°01'0 0.0
2018-Apr-04 02:00N 29°37' W 095°01'0 0.0
2018-Apr-04 01:30N 29°37' W 095°01'0 0.0
2018-Apr-04 01:00N 29°37' W 095°01'0 0.0
2018-Apr-04 00:30N 29°37' W 095°01'0 0.0
2018-Apr-03 23:57N 29°37' W 095°01'0 0.0
2018-Apr-03 23:30N 29°37' W 095°01'0 0.0
2018-Apr-03 23:00N 29°37' W 095°01'0 0.0
2018-Apr-03 22:30N 29°37' W 095°01'0 0.0
2018-Apr-03 22:00N 29°37' W 095°01'0 0.0
2018-Apr-03 21:30N 29°37' W 095°01'0 0.0
2018-Apr-03 21:00N 29°37' W 095°01'0 0.5
2018-Apr-03 20:30N 29°37' W 095°01'0 0.7
2018-Apr-03 20:00N 29°37' W 095°00'3 5.7
2018-Apr-03 19:30N 29°36' W 094°57'510.9
2018-Apr-03 19:00N 29°32' W 094°54'612.8
2018-Apr-03 18:30N 29°26' W 094°50'612.3
2018-Apr-03 18:00N 29°21' W 094°47'814.3
2018-Apr-03 17:25N 29°18' W 094°38'511.7
2018-Apr-03 16:57N 29°15' W 094°32'612.7
2018-Apr-03 16:29N 29°12' W 094°27'3 6.7
2018-Apr-03 16:00N 29°09' W 094°25'2 3.6
2018-Apr-03 15:29N 29°08' W 094°24'3 6.0
2018-Apr-03 15:00N 29°05' W 094°25'3 6.7
2018-Apr-03 14:30N 29°01' W 094°25'4 8.9
2018-Apr-03 14:00N 28°57' W 094°25'4 9.0
2018-Apr-03 13:30N 28°52' W 094°25'5 9.8
2018-Apr-03 13:01N 28°47' W 094°25'611.6
2018-Apr-03 12:30N 28°42' W 094°25'611.7
2018-Apr-03 12:00N 28°36' W 094°25'611.8
2018-Apr-03 11:31N 28°30' W 094°25'612.0
2018-Apr-03 11:01N 28°24' W 094°25'612.1
2018-Apr-03 10:30N 28°18' W 094°25'612.1
2018-Apr-03 10:00N 28°12' W 094°25'712.0
2018-Apr-03 09:27N 28°05' W 094°25'612.0
2018-Apr-03 08:59N 27°60' W 094°25'712.0
2018-Apr-03 08:23N 27°52' W 094°25'812.0
2018-Apr-03 07:44N 27°44' W 094°25'811.9
2018-Apr-03 07:02N 27°37' W 094°20'112.1
2018-Apr-03 06:59N 27°37' W 094°20'612.1
2018-Apr-03 06:30N 27°32' W 094°16'612.1
2018-Apr-03 06:00N 27°27' W 094°12'712.1
2018-Apr-03 05:27N 27°22' W 094°08'1311.8
2018-Apr-03 04:23N 27°11' W 093°59'411.5
2018-Apr-03 04:00N 27°08' W 093°56'611.6
2018-Apr-03 03:30N 27°03' W 093°53'611.6
2018-Apr-03 02:58N 26°58' W 093°49'1411.9
2018-Apr-03 01:48N 26°47' W 093°40'  
Track history (hours):
 
Tides and Currents Weather Stations Pressure Air Temp Water Temp Dewpoint Dewpoint Depression Visibility Wind Speed Wind Dir Waves Ship Positions

CMA CGM Lamartine

Last reported at 2018-Apr-12 11:37 UTC. Time now 2018-Apr-19 11:27 UTC.
Position N 27°11' W 079°51'.

Length 299 m; draft 11 m.

Type: Ship (hazmat cat A). MMSI: 235080187.

Date/timePositionNaut miles runAvg speedWind from/ knotsBaromVisibWave heightAir tempDewpointWater temp
2018-Apr-12 11:37N 27°11' W 079°51'214.8
2018-Apr-12 11:30N 27°09' W 079°51'714.7
2018-Apr-12 11:00N 27°02' W 079°51'714.6
2018-Apr-12 10:30N 26°55' W 079°51'714.7
2018-Apr-12 10:00N 26°47' W 079°51'914.9
2018-Apr-12 09:24N 26°38' W 079°51'615.3
2018-Apr-12 09:00N 26°32' W 079°51'815.4
2018-Apr-12 08:30N 26°24' W 079°51'815.1
2018-Apr-12 08:00N 26°17' W 079°51'715.0
2018-Apr-12 07:30N 26°09' W 079°52'714.6
2018-Apr-12 07:00N 26°03' W 079°55'714.1
2018-Apr-12 06:30N 25°57' W 079°59'713.9
2018-Apr-12 06:00N 25°50' W 080°02'510.5
2018-Apr-12 05:30N 25°46' W 080°05'4 7.2
2018-Apr-12 05:00N 25°46' W 080°09'1 0.9
2018-Apr-12 04:25N 25°46' W 080°09'0 0.0
2018-Apr-12 03:58N 25°46' W 080°09'0 0.0
2018-Apr-12 03:28N 25°46' W 080°09'0 0.0
2018-Apr-12 02:58N 25°46' W 080°09'0 0.0
2018-Apr-12 02:28N 25°46' W 080°09'0 0.0
2018-Apr-12 01:58N 25°46' W 080°09'0 0.0
2018-Apr-12 01:25N 25°46' W 080°09'0 0.0
2018-Apr-12 00:58N 25°46' W 080°09'0 0.0
2018-Apr-12 00:28N 25°46' W 080°09'0 0.0
2018-Apr-11 23:58N 25°46' W 080°09'0 0.0
2018-Apr-11 23:19N 25°46' W 080°09'0 0.0
2018-Apr-11 22:49N 25°46' W 080°09'0 0.0
2018-Apr-11 22:25N 25°46' W 080°09'0 0.0
2018-Apr-11 21:55N 25°46' W 080°09'0 0.0
2018-Apr-11 21:22N 25°46' W 080°09'0 0.0
2018-Apr-11 20:52N 25°46' W 080°09'0 0.0
2018-Apr-11 20:22N 25°46' W 080°09'0 0.0
2018-Apr-11 19:55N 25°46' W 080°09'0 0.0
2018-Apr-11 19:22N 25°46' W 080°09'0 0.0
2018-Apr-11 18:55N 25°46' W 080°09'0 0.0
2018-Apr-11 18:25N 25°46' W 080°09'0 0.0
2018-Apr-11 17:55N 25°46' W 080°09'0 0.0
2018-Apr-11 17:25N 25°46' W 080°09'0 0.0
2018-Apr-11 16:55N 25°46' W 080°09'0 0.0
2018-Apr-11 16:28N 25°46' W 080°09'0 0.0
2018-Apr-11 15:58N 25°46' W 080°09'0 0.0
2018-Apr-11 15:28N 25°46' W 080°09'0 0.0
2018-Apr-11 14:55N 25°46' W 080°09'0 0.0
2018-Apr-11 14:28N 25°46' W 080°09'0 0.0
2018-Apr-11 13:58N 25°46' W 080°09'0 0.0
2018-Apr-11 13:28N 25°46' W 080°09'0 0.0
2018-Apr-11 12:58N 25°46' W 080°09'0 0.0
2018-Apr-11 12:30N 25°46' W 080°09'0 0.0
2018-Apr-11 12:00N 25°46' W 080°09'0 0.0
2018-Apr-11 11:27N 25°46' W 080°09'0 0.0
2018-Apr-11 11:00N 25°46' W 080°09'0 0.0
2018-Apr-11 10:30N 25°46' W 080°09'0 0.0
2018-Apr-11 10:00N 25°46' W 080°09'0 0.0
2018-Apr-11 09:30N 25°46' W 080°09'0 0.0
2018-Apr-11 09:00N 25°46' W 080°09'0 0.0
2018-Apr-11 08:30N 25°46' W 080°09'0 0.0
2018-Apr-11 08:00N 25°46' W 080°09'0 0.0
2018-Apr-11 07:30N 25°46' W 080°09'0 0.0
2018-Apr-11 07:00N 25°46' W 080°09'0 0.0
2018-Apr-11 06:30N 25°46' W 080°09'0 0.0
2018-Apr-11 05:59N 25°46' W 080°09'1 1.2
2018-Apr-11 05:30N 25°46' W 080°08'3 6.5
2018-Apr-11 05:00N 25°46' W 080°05'4 7.5
2018-Apr-11 04:30N 25°49' W 080°02'2 5.0
2018-Apr-11 04:00N 25°47' W 080°01'3 6.4
2018-Apr-11 03:30N 25°44' W 079°59'5 9.6
2018-Apr-11 03:01N 25°39' W 079°59'815.9
2018-Apr-11 02:30N 25°31' W 079°60'815.8
2018-Apr-11 01:59N 25°23' W 080°01'715.3
2018-Apr-11 01:30N 25°16' W 080°04'  
2018-Apr-05 12:19N 28°49' W 093°54'618.6
2018-Apr-05 12:00N 28°51' W 094°00'1018.5
2018-Apr-05 11:29N 28°53' W 094°11'918.3
2018-Apr-05 11:00N 28°55' W 094°21'816.0
2018-Apr-05 10:30N 29°02' W 094°26'917.7
2018-Apr-05 10:00N 29°10' W 094°29'916.7
2018-Apr-05 09:28N 29°17' W 094°36'614.1
2018-Apr-05 09:00N 29°21' W 094°42'612.7
2018-Apr-05 08:30N 29°23' W 094°49'612.9
2018-Apr-05 08:00N 29°29' W 094°52'612.4
2018-Apr-05 07:30N 29°34' W 094°55'4 8.0
2018-Apr-05 07:00N 29°37' W 094°59'2 3.3
2018-Apr-05 06:30N 29°37' W 095°01'0 0.0
2018-Apr-05 06:00N 29°37' W 095°01'0 0.0
2018-Apr-05 05:30N 29°37' W 095°01'0 0.0
2018-Apr-05 05:00N 29°37' W 095°01'0 0.0
2018-Apr-05 04:30N 29°37' W 095°01'0 0.0
2018-Apr-05 03:57N 29°37' W 095°01'0 0.0
2018-Apr-05 03:30N 29°37' W 095°01'0 0.0
2018-Apr-05 03:00N 29°37' W 095°01'0 0.0
2018-Apr-05 02:30N 29°37' W 095°01'0 0.0
2018-Apr-05 02:00N 29°37' W 095°01'0 0.0
2018-Apr-05 01:30N 29°37' W 095°01'0 0.0
2018-Apr-05 01:00N 29°37' W 095°01'0 0.0
2018-Apr-05 00:27N 29°37' W 095°01'0 0.0
2018-Apr-05 00:00N 29°37' W 095°01'0 0.0
2018-Apr-04 23:30N 29°37' W 095°01'0 0.0
2018-Apr-04 23:00N 29°37' W 095°01'0 0.0
2018-Apr-04 22:30N 29°37' W 095°01'0 0.0
2018-Apr-04 22:00N 29°37' W 095°01'0 0.0
2018-Apr-04 21:30N 29°37' W 095°01'0 0.0
2018-Apr-04 21:00N 29°37' W 095°01'0 0.0
2018-Apr-04 20:30N 29°37' W 095°01'0 0.0
2018-Apr-04 20:00N 29°37' W 095°01'0 0.0
2018-Apr-04 19:30N 29°37' W 095°01'0 0.0
2018-Apr-04 19:00N 29°37' W 095°01'0 0.0
2018-Apr-04 18:30N 29°37' W 095°01'0 0.0
2018-Apr-04 18:00N 29°37' W 095°01'0 0.0
2018-Apr-04 17:30N 29°37' W 095°01'0 0.0
2018-Apr-04 17:00N 29°37' W 095°01'0 0.0
2018-Apr-04 16:30N 29°37' W 095°01'0 0.0
2018-Apr-04 16:00N 29°37' W 095°01'0 0.0
2018-Apr-04 15:30N 29°37' W 095°01'0 0.0
2018-Apr-04 15:00N 29°37' W 095°01'0 0.0
2018-Apr-04 14:30N 29°37' W 095°01'0 0.0
2018-Apr-04 14:00N 29°37' W 095°01'0 0.0
2018-Apr-04 13:30N 29°37' W 095°01'0 0.0
2018-Apr-04 13:00N 29°37' W 095°01'0 0.0
2018-Apr-04 12:30N 29°37' W 095°01'0 0.0
2018-Apr-04 12:00N 29°37' W 095°01'0 0.0
2018-Apr-04 11:30N 29°37' W 095°01'0 0.0
2018-Apr-04 11:00N 29°37' W 095°01'0 0.0
2018-Apr-04 10:30N 29°37' W 095°01'0 0.0
2018-Apr-04 10:00N 29°37' W 095°01'0 0.0
2018-Apr-04 09:30N 29°37' W 095°01'0 0.0
2018-Apr-04 09:00N 29°37' W 095°01'0 0.0
2018-Apr-04 08:30N 29°37' W 095°01'0 0.0
2018-Apr-04 08:00N 29°37' W 095°01'0 0.0
2018-Apr-04 07:30N 29°37' W 095°01'0 0.0
2018-Apr-04 07:00N 29°37' W 095°01'0 0.0
2018-Apr-04 06:30N 29°37' W 095°01'0 0.0
2018-Apr-04 06:00N 29°37' W 095°01'0 0.0
2018-Apr-04 05:30N 29°37' W 095°01'0 0.0
2018-Apr-04 05:00N 29°37' W 095°01'0 0.0
2018-Apr-04 04:30N 29°37' W 095°01'0 0.0
2018-Apr-04 04:00N 29°37' W 095°01'0 0.0
2018-Apr-04 03:30N 29°37' W 095°01'0 0.0
2018-Apr-04 03:00N 29°37' W 095°01'0 0.0
2018-Apr-04 02:30N 29°37' W 095°01'0 0.0
2018-Apr-04 02:00N 29°37' W 095°01'0 0.0
2018-Apr-04 01:30N 29°37' W 095°01'0 0.0
2018-Apr-04 01:00N 29°37' W 095°01'0 0.0
2018-Apr-04 00:30N 29°37' W 095°01'0 0.0
2018-Apr-03 23:57N 29°37' W 095°01'0 0.0
2018-Apr-03 23:30N 29°37' W 095°01'0 0.0
2018-Apr-03 23:00N 29°37' W 095°01'0 0.0
2018-Apr-03 22:30N 29°37' W 095°01'0 0.0
2018-Apr-03 22:00N 29°37' W 095°01'0 0.0
2018-Apr-03 21:30N 29°37' W 095°01'0 0.0
2018-Apr-03 21:00N 29°37' W 095°01'0 0.5
2018-Apr-03 20:30N 29°37' W 095°01'0 0.7
2018-Apr-03 20:00N 29°37' W 095°00'3 5.7
2018-Apr-03 19:30N 29°36' W 094°57'510.9
2018-Apr-03 19:00N 29°32' W 094°54'612.8
2018-Apr-03 18:30N 29°26' W 094°50'612.3
2018-Apr-03 18:00N 29°21' W 094°47'814.3
2018-Apr-03 17:25N 29°18' W 094°38'511.7
2018-Apr-03 16:57N 29°15' W 094°32'612.7
2018-Apr-03 16:29N 29°12' W 094°27'3 6.7
2018-Apr-03 16:00N 29°09' W 094°25'2 3.6
2018-Apr-03 15:29N 29°08' W 094°24'3 6.0
2018-Apr-03 15:00N 29°05' W 094°25'3 6.7
2018-Apr-03 14:30N 29°01' W 094°25'4 8.9
2018-Apr-03 14:00N 28°57' W 094°25'4 9.0
2018-Apr-03 13:30N 28°52' W 094°25'5 9.8
2018-Apr-03 13:01N 28°47' W 094°25'611.6
2018-Apr-03 12:30N 28°42' W 094°25'611.7
2018-Apr-03 12:00N 28°36' W 094°25'611.8
2018-Apr-03 11:31N 28°30' W 094°25'612.0
2018-Apr-03 11:01N 28°24' W 094°25'612.1
2018-Apr-03 10:30N 28°18' W 094°25'612.1
2018-Apr-03 10:00N 28°12' W 094°25'712.0
2018-Apr-03 09:27N 28°05' W 094°25'612.0
2018-Apr-03 08:59N 27°60' W 094°25'712.0
2018-Apr-03 08:23N 27°52' W 094°25'812.0
2018-Apr-03 07:44N 27°44' W 094°25'811.9
2018-Apr-03 07:02N 27°37' W 094°20'112.1
2018-Apr-03 06:59N 27°37' W 094°20'612.1
2018-Apr-03 06:30N 27°32' W 094°16'612.1
2018-Apr-03 06:00N 27°27' W 094°12'712.1
2018-Apr-03 05:27N 27°22' W 094°08'1311.8
2018-Apr-03 04:23N 27°11' W 093°59'411.5
2018-Apr-03 04:00N 27°08' W 093°56'611.6
2018-Apr-03 03:30N 27°03' W 093°53'611.6
2018-Apr-03 02:58N 26°58' W 093°49'1411.9
2018-Apr-03 01:48N 26°47' W 093°40'  

Dump ship's entire track history